Time;durP1;ratioP1;P1;durP2;ratioP2;P2;SDS_P1;SDS_P2;PMS_P1;PMS_P2;Temp;Humidity;BMP_temperature;BMP_pressure;BME280_temperature;BME280_humidity;BME280_pressure;Samples;Min_cycle;Max_cycle;Signal;HPM_P1;HPM_P2
2023/03/16 00:00:00;;;;;;;2.0;2.0;;;;;;;4.4;100.0;101570;;;;
2023/03/16 00:01:04;;;;;;;2.0;2.0;;;;;;;4.4;100.0;101570;;;;
2023/03/16 00:02:00;;;;;;;2.0;2.0;;;;;;;4.4;100.0;101570;;;;
2023/03/16 00:03:00;;;;;;;2.0;2.0;;;;;;;4.5;100.0;101570;;;;
2023/03/16 00:04:01;;;;;;;2.0;2.0;;;;;;;4.5;100.0;101570;;;;
2023/03/16 00:05:00;;;;;;;2.0;2.0;;;;;;;4.5;100.0;101570;;;;
2023/03/16 00:06:00;;;;;;;2.0;2.0;;;;;;;4.5;100.0;101570;;;;
2023/03/16 00:07:00;;;;;;;2.0;2.0;;;;;;;4.6;100.0;101570;;;;
2023/03/16 00:08:00;;;;;;;2.0;2.0;;;;;;;4.6;100.0;101570;;;;
2023/03/16 00:09:00;;;;;;;2.0;2.0;;;;;;;4.6;100.0;101570;;;;
2023/03/16 00:10:00;;;;;;;2.0;2.0;;;;;;;4.6;100.0;101570;;;;
2023/03/16 00:11:01;;;;;;;2.0;2.0;;;;;;;4.6;100.0;101570;;;;
2023/03/16 00:12:03;;;;;;;2.0;2.0;;;;;;;4.6;100.0;101570;;;;
2023/03/16 00:13:01;;;;;;;2.0;2.0;;;;;;;4.7;100.0;101560;;;;
2023/03/16 00:14:03;;;;;;;2.0;2.0;;;;;;;4.7;100.0;101560;;;;
2023/03/16 00:15:00;;;;;;;2.0;2.0;;;;;;;4.6;100.0;101560;;;;
2023/03/16 00:16:03;;;;;;;2.0;2.0;;;;;;;4.6;100.0;101560;;;;
2023/03/16 00:17:01;;;;;;;2.0;2.0;;;;;;;4.7;100.0;101570;;;;
2023/03/16 00:18:00;;;;;;;2.0;2.0;;;;;;;4.7;100.0;101570;;;;
2023/03/16 00:19:02;;;;;;;2.0;2.0;;;;;;;4.6;100.0;101570;;;;
2023/03/16 00:20:05;;;;;;;2.0;2.0;;;;;;;4.6;100.0;101570;;;;
2023/03/16 00:21:01;;;;;;;2.0;2.0;;;;;;;4.6;100.0;101570;;;;
2023/03/16 00:22:00;;;;;;;1.8;1.8;;;;;;;4.6;100.0;101570;;;;
2023/03/16 00:23:01;;;;;;;1.8;1.8;;;;;;;4.7;100.0;101580;;;;
2023/03/16 00:24:02;;;;;;;1.8;1.8;;;;;;;4.7;100.0;101580;;;;
2023/03/16 00:25:00;;;;;;;1.8;1.8;;;;;;;4.6;100.0;101570;;;;
2023/03/16 00:26:02;;;;;;;1.8;1.8;;;;;;;4.6;100.0;101570;;;;
2023/03/16 00:27:00;;;;;;;1.8;1.8;;;;;;;4.5;100.0;101570;;;;
2023/03/16 00:28:02;;;;;;;1.8;1.8;;;;;;;4.5;100.0;101570;;;;
2023/03/16 00:29:00;;;;;;;1.8;1.8;;;;;;;4.6;100.0;101560;;;;
2023/03/16 00:30:02;;;;;;;1.8;1.8;;;;;;;4.6;100.0;101560;;;;
2023/03/16 00:31:02;;;;;;;1.8;1.8;;;;;;;4.6;100.0;101560;;;;
2023/03/16 00:32:02;;;;;;;1.8;1.8;;;;;;;4.6;100.0;101560;;;;
2023/03/16 00:33:00;;;;;;;1.8;1.8;;;;;;;4.5;100.0;101550;;;;
2023/03/16 00:34:01;;;;;;;1.8;1.8;;;;;;;4.5;100.0;101550;;;;
2023/03/16 00:35:01;;;;;;;1.8;1.8;;;;;;;4.6;100.0;101550;;;;
2023/03/16 00:36:01;;;;;;;1.8;1.8;;;;;;;4.6;100.0;101550;;;;
2023/03/16 00:37:01;;;;;;;1.8;1.8;;;;;;;4.6;100.0;101550;;;;
2023/03/16 00:38:00;;;;;;;1.8;1.8;;;;;;;4.6;100.0;101550;;;;
2023/03/16 00:39:01;;;;;;;1.8;1.8;;;;;;;4.6;100.0;101550;;;;
2023/03/16 00:40:00;;;;;;;1.8;1.8;;;;;;;4.6;100.0;101550;;;;
2023/03/16 00:41:04;;;;;;;1.8;1.8;;;;;;;4.7;100.0;101560;;;;
2023/03/16 00:42:01;;;;;;;2.3;2.3;;;;;;;4.7;100.0;101560;;;;
2023/03/16 00:43:00;;;;;;;2.3;2.3;;;;;;;4.7;100.0;101550;;;;
2023/03/16 00:44:00;;;;;;;2.3;2.3;;;;;;;4.7;100.0;101550;;;;
2023/03/16 00:45:00;;;;;;;2.3;2.3;;;;;;;4.7;100.0;101550;;;;
2023/03/16 00:46:05;;;;;;;2.3;2.3;;;;;;;4.7;100.0;101550;;;;
2023/03/16 00:47:00;;;;;;;2.3;2.3;;;;;;;4.7;100.0;101540;;;;
2023/03/16 00:48:00;;;;;;;2.3;2.3;;;;;;;4.7;100.0;101540;;;;
2023/03/16 00:49:01;;;;;;;2.3;2.3;;;;;;;4.6;100.0;101540;;;;
2023/03/16 00:50:01;;;;;;;2.3;2.3;;;;;;;4.6;100.0;101540;;;;
2023/03/16 00:51:03;;;;;;;2.3;2.3;;;;;;;4.7;100.0;101540;;;;
2023/03/16 00:52:01;;;;;;;2.3;2.3;;;;;;;4.7;100.0;101540;;;;
2023/03/16 00:53:00;;;;;;;2.3;2.3;;;;;;;4.7;100.0;101540;;;;
2023/03/16 00:54:00;;;;;;;2.3;2.3;;;;;;;4.7;100.0;101540;;;;
2023/03/16 00:55:02;;;;;;;2.3;2.3;;;;;;;4.6;100.0;101530;;;;
2023/03/16 00:56:03;;;;;;;2.3;2.3;;;;;;;4.6;100.0;101530;;;;
2023/03/16 00:57:01;;;;;;;2.3;2.3;;;;;;;4.7;100.0;101530;;;;
2023/03/16 00:58:03;;;;;;;2.3;2.3;;;;;;;4.7;100.0;101530;;;;
2023/03/16 00:59:00;;;;;;;2.3;2.3;;;;;;;4.8;100.0;101520;;;;
2023/03/16 01:00:09;;;;;;;2.3;2.3;;;;;;;4.8;100.0;101520;;;;
2023/03/16 01:01:01;;;;;;;2.3;2.3;;;;;;;4.7;100.0;101520;;;;
2023/03/16 01:02:01;;;;;;;2.2;2.2;;;;;;;4.7;100.0;101520;;;;
2023/03/16 01:03:00;;;;;;;2.2;2.2;;;;;;;4.8;100.0;101510;;;;
2023/03/16 01:04:00;;;;;;;2.2;2.2;;;;;;;4.8;100.0;101510;;;;
2023/03/16 01:05:00;;;;;;;2.2;2.2;;;;;;;4.7;100.0;101510;;;;
2023/03/16 01:06:09;;;;;;;2.2;2.2;;;;;;;4.7;100.0;101510;;;;
2023/03/16 01:07:01;;;;;;;2.2;2.2;;;;;;;4.8;100.0;101510;;;;
2023/03/16 01:08:03;;;;;;;2.2;2.2;;;;;;;4.8;100.0;101510;;;;
2023/03/16 01:09:01;;;;;;;2.2;2.2;;;;;;;4.6;100.0;101510;;;;
2023/03/16 01:10:00;;;;;;;2.2;2.2;;;;;;;4.6;100.0;101510;;;;
2023/03/16 01:11:02;;;;;;;2.2;2.2;;;;;;;4.6;100.0;101510;;;;
2023/03/16 01:12:00;;;;;;;2.2;2.2;;;;;;;4.6;100.0;101510;;;;
2023/03/16 01:13:02;;;;;;;2.2;2.2;;;;;;;4.6;100.0;101500;;;;
2023/03/16 01:14:00;;;;;;;2.2;2.2;;;;;;;4.6;100.0;101500;;;;
2023/03/16 01:15:00;;;;;;;2.2;2.2;;;;;;;4.7;100.0;101500;;;;
2023/03/16 01:16:00;;;;;;;2.2;2.2;;;;;;;4.7;100.0;101500;;;;
2023/03/16 01:17:00;;;;;;;2.2;2.2;;;;;;;4.7;100.0;101500;;;;
2023/03/16 01:18:00;;;;;;;2.2;2.2;;;;;;;4.7;100.0;101500;;;;
2023/03/16 01:19:00;;;;;;;2.2;2.2;;;;;;;4.7;100.0;101490;;;;
2023/03/16 01:20:00;;;;;;;2.2;2.2;;;;;;;4.7;100.0;101490;;;;
2023/03/16 01:21:02;;;;;;;2.2;2.2;;;;;;;4.7;100.0;101490;;;;
2023/03/16 01:22:01;;;;;;;1.9;1.9;;;;;;;4.7;100.0;101490;;;;
2023/03/16 01:23:01;;;;;;;1.9;1.9;;;;;;;4.6;100.0;101490;;;;
2023/03/16 01:24:00;;;;;;;1.9;1.9;;;;;;;4.6;100.0;101490;;;;
2023/03/16 01:25:00;;;;;;;1.9;1.9;;;;;;;4.5;100.0;101490;;;;
2023/03/16 01:26:01;;;;;;;1.9;1.9;;;;;;;4.5;100.0;101490;;;;
2023/03/16 01:27:00;;;;;;;1.9;1.9;;;;;;;4.5;100.0;101490;;;;
2023/03/16 01:28:00;;;;;;;1.9;1.9;;;;;;;4.5;100.0;101490;;;;
2023/03/16 01:29:01;;;;;;;1.9;1.9;;;;;;;4.7;100.0;101490;;;;
2023/03/16 01:30:01;;;;;;;1.9;1.9;;;;;;;4.7;100.0;101490;;;;
2023/03/16 01:31:02;;;;;;;1.9;1.9;;;;;;;4.7;100.0;101480;;;;
2023/03/16 01:32:00;;;;;;;1.9;1.9;;;;;;;4.7;100.0;101480;;;;
2023/03/16 01:33:00;;;;;;;1.9;1.9;;;;;;;4.6;100.0;101480;;;;
2023/03/16 01:34:02;;;;;;;1.9;1.9;;;;;;;4.6;100.0;101480;;;;
2023/03/16 01:35:00;;;;;;;1.9;1.9;;;;;;;4.6;100.0;101480;;;;
2023/03/16 01:36:02;;;;;;;1.9;1.9;;;;;;;4.6;100.0;101480;;;;
2023/03/16 01:37:00;;;;;;;1.9;1.9;;;;;;;4.6;100.0;101480;;;;
2023/03/16 01:38:00;;;;;;;1.9;1.9;;;;;;;4.6;100.0;101480;;;;
2023/03/16 01:39:00;;;;;;;1.9;1.9;;;;;;;4.6;100.0;101470;;;;
2023/03/16 01:40:01;;;;;;;1.9;1.9;;;;;;;4.6;100.0;101470;;;;
2023/03/16 01:41:00;;;;;;;2.0;2.0;;;;;;;4.6;100.0;101480;;;;
2023/03/16 01:42:00;;;;;;;2.0;2.0;;;;;;;4.6;100.0;101480;;;;
2023/03/16 01:43:03;;;;;;;2.0;2.0;;;;;;;4.6;100.0;101470;;;;
2023/03/16 01:44:00;;;;;;;2.0;2.0;;;;;;;4.6;100.0;101470;;;;
2023/03/16 01:45:01;;;;;;;2.0;2.0;;;;;;;4.5;100.0;101460;;;;
2023/03/16 01:46:03;;;;;;;2.0;2.0;;;;;;;4.5;100.0;101460;;;;
2023/03/16 01:47:00;;;;;;;2.0;2.0;;;;;;;4.5;100.0;101460;;;;
2023/03/16 01:48:00;;;;;;;2.0;2.0;;;;;;;4.5;100.0;101460;;;;
2023/03/16 01:49:05;;;;;;;2.0;2.0;;;;;;;4.5;100.0;101460;;;;
2023/03/16 01:50:00;;;;;;;2.0;2.0;;;;;;;4.5;100.0;101460;;;;
2023/03/16 01:51:00;;;;;;;2.0;2.0;;;;;;;4.5;100.0;101460;;;;
2023/03/16 01:52:09;;;;;;;2.0;2.0;;;;;;;4.5;100.0;101460;;;;
2023/03/16 01:53:00;;;;;;;2.0;2.0;;;;;;;4.6;100.0;101470;;;;
2023/03/16 01:54:13;;;;;;;2.0;2.0;;;;;;;4.6;100.0;101470;;;;
2023/03/16 01:55:07;;;;;;;2.0;2.0;;;;;;;4.6;100.0;101470;;;;
2023/03/16 01:56:02;;;;;;;2.0;2.0;;;;;;;4.6;100.0;101470;;;;
2023/03/16 01:57:00;;;;;;;2.0;2.0;;;;;;;4.6;100.0;101460;;;;
2023/03/16 01:58:00;;;;;;;2.0;2.0;;;;;;;4.6;100.0;101460;;;;
2023/03/16 01:59:01;;;;;;;2.0;2.0;;;;;;;4.6;100.0;101460;;;;
2023/03/16 02:00:09;;;;;;;2.0;2.0;;;;;;;4.6;100.0;101460;;;;
2023/03/16 02:01:01;;;;;;;2.0;2.0;;;;;;;4.6;100.0;101460;;;;
2023/03/16 02:02:00;;;;;;;2.0;2.0;;;;;;;4.6;100.0;101460;;;;
2023/03/16 02:03:04;;;;;;;2.0;2.0;;;;;;;4.7;100.0;101460;;;;
2023/03/16 02:04:06;;;;;;;2.0;2.0;;;;;;;4.7;100.0;101460;;;;
2023/03/16 02:05:07;;;;;;;2.0;2.0;;;;;;;4.6;100.0;101450;;;;
2023/03/16 02:06:05;;;;;;;2.0;2.0;;;;;;;4.6;100.0;101450;;;;
2023/03/16 02:07:00;;;;;;;2.0;2.0;;;;;;;4.6;100.0;101450;;;;
2023/03/16 02:08:01;;;;;;;2.0;2.0;;;;;;;4.6;100.0;101450;;;;
2023/03/16 02:09:00;;;;;;;2.0;2.0;;;;;;;4.6;100.0;101450;;;;
2023/03/16 02:10:02;;;;;;;2.0;2.0;;;;;;;4.6;100.0;101450;;;;
2023/03/16 02:11:00;;;;;;;2.0;2.0;;;;;;;4.6;100.0;101440;;;;
2023/03/16 02:12:00;;;;;;;2.0;2.0;;;;;;;4.6;100.0;101440;;;;
2023/03/16 02:13:00;;;;;;;2.0;2.0;;;;;;;4.7;100.0;101440;;;;
2023/03/16 02:14:04;;;;;;;2.0;2.0;;;;;;;4.7;100.0;101440;;;;
2023/03/16 02:15:00;;;;;;;2.0;2.0;;;;;;;4.7;100.0;101440;;;;
2023/03/16 02:16:00;;;;;;;2.0;2.0;;;;;;;4.7;100.0;101440;;;;
2023/03/16 02:17:00;;;;;;;2.0;2.0;;;;;;;4.5;100.0;101430;;;;
2023/03/16 02:18:01;;;;;;;2.0;2.0;;;;;;;4.5;100.0;101430;;;;
2023/03/16 02:19:00;;;;;;;2.0;2.0;;;;;;;4.6;100.0;101430;;;;
2023/03/16 02:20:10;;;;;;;2.0;2.0;;;;;;;4.6;100.0;101430;;;;
2023/03/16 02:21:07;;;;;;;2.1;2.1;;;;;;;4.7;100.0;101430;;;;
2023/03/16 02:22:01;;;;;;;2.1;2.1;;;;;;;4.7;100.0;101430;;;;
2023/03/16 02:23:01;;;;;;;2.1;2.1;;;;;;;4.7;100.0;101430;;;;
2023/03/16 02:24:02;;;;;;;2.1;2.1;;;;;;;4.7;100.0;101430;;;;
2023/03/16 02:25:00;;;;;;;2.1;2.1;;;;;;;4.7;100.0;101430;;;;
2023/03/16 02:26:08;;;;;;;2.1;2.1;;;;;;;4.7;100.0;101430;;;;
2023/03/16 02:27:03;;;;;;;2.1;2.1;;;;;;;4.7;100.0;101420;;;;
2023/03/16 02:28:01;;;;;;;2.1;2.1;;;;;;;4.7;100.0;101420;;;;
2023/03/16 02:29:10;;;;;;;2.1;2.1;;;;;;;4.8;100.0;101420;;;;
2023/03/16 02:30:00;;;;;;;2.1;2.1;;;;;;;4.8;100.0;101420;;;;
2023/03/16 02:31:00;;;;;;;2.1;2.1;;;;;;;4.7;100.0;101420;;;;
2023/03/16 02:32:01;;;;;;;2.1;2.1;;;;;;;4.7;100.0;101420;;;;
2023/03/16 02:33:01;;;;;;;2.1;2.1;;;;;;;4.7;100.0;101420;;;;
2023/03/16 02:34:00;;;;;;;2.1;2.1;;;;;;;4.7;100.0;101420;;;;
2023/03/16 02:35:01;;;;;;;2.1;2.1;;;;;;;4.8;100.0;101420;;;;
2023/03/16 02:36:00;;;;;;;2.1;2.1;;;;;;;4.8;100.0;101420;;;;
2023/03/16 02:37:01;;;;;;;2.1;2.1;;;;;;;4.8;100.0;101420;;;;
2023/03/16 02:38:00;;;;;;;2.1;2.1;;;;;;;4.8;100.0;101420;;;;
2023/03/16 02:39:00;;;;;;;2.1;2.1;;;;;;;4.8;100.0;101430;;;;
2023/03/16 02:40:02;;;;;;;2.1;2.1;;;;;;;4.8;100.0;101430;;;;
2023/03/16 02:41:08;;;;;;;1.9;1.9;;;;;;;4.8;100.0;101430;;;;
2023/03/16 02:42:01;;;;;;;1.9;1.9;;;;;;;4.8;100.0;101430;;;;
2023/03/16 02:43:05;;;;;;;1.9;1.9;;;;;;;4.7;100.0;101430;;;;
2023/03/16 02:44:03;;;;;;;1.9;1.9;;;;;;;4.7;100.0;101430;;;;
2023/03/16 02:45:00;;;;;;;1.9;1.9;;;;;;;4.8;100.0;101430;;;;
2023/03/16 02:46:03;;;;;;;1.9;1.9;;;;;;;4.8;100.0;101430;;;;
2023/03/16 02:47:03;;;;;;;1.9;1.9;;;;;;;4.7;100.0;101430;;;;
2023/03/16 02:48:04;;;;;;;1.9;1.9;;;;;;;4.7;100.0;101430;;;;
2023/03/16 02:49:10;;;;;;;1.9;1.9;;;;;;;4.6;100.0;101430;;;;
2023/03/16 02:50:05;;;;;;;1.9;1.9;;;;;;;4.6;100.0;101430;;;;
2023/03/16 02:51:00;;;;;;;1.9;1.9;;;;;;;4.8;100.0;101430;;;;
2023/03/16 02:52:00;;;;;;;1.9;1.9;;;;;;;4.8;100.0;101430;;;;
2023/03/16 02:53:00;;;;;;;1.9;1.9;;;;;;;4.7;100.0;101430;;;;
2023/03/16 02:54:00;;;;;;;1.9;1.9;;;;;;;4.7;100.0;101430;;;;
2023/03/16 02:55:00;;;;;;;1.9;1.9;;;;;;;4.7;100.0;101430;;;;
2023/03/16 02:56:01;;;;;;;1.9;1.9;;;;;;;4.7;100.0;101430;;;;
2023/03/16 02:57:00;;;;;;;1.9;1.9;;;;;;;4.7;100.0;101430;;;;
2023/03/16 02:58:00;;;;;;;1.9;1.9;;;;;;;4.7;100.0;101430;;;;
2023/03/16 02:59:00;;;;;;;1.9;1.9;;;;;;;4.6;100.0;101430;;;;
2023/03/16 03:00:00;;;;;;;1.9;1.9;;;;;;;4.6;100.0;101430;;;;
2023/03/16 03:01:00;;;;;;;2.0;2.0;;;;;;;4.7;100.0;101430;;;;
2023/03/16 03:02:00;;;;;;;2.0;2.0;;;;;;;4.7;100.0;101430;;;;
2023/03/16 03:03:00;;;;;;;2.0;2.0;;;;;;;4.8;100.0;101430;;;;
2023/03/16 03:04:00;;;;;;;2.0;2.0;;;;;;;4.8;100.0;101430;;;;
2023/03/16 03:05:00;;;;;;;2.0;2.0;;;;;;;4.8;100.0;101430;;;;
2023/03/16 03:06:01;;;;;;;2.0;2.0;;;;;;;4.8;100.0;101430;;;;
2023/03/16 03:07:03;;;;;;;2.0;2.0;;;;;;;4.6;100.0;101430;;;;
2023/03/16 03:08:00;;;;;;;2.0;2.0;;;;;;;4.6;100.0;101430;;;;
2023/03/16 03:09:00;;;;;;;2.0;2.0;;;;;;;4.6;100.0;101420;;;;
2023/03/16 03:10:04;;;;;;;2.0;2.0;;;;;;;4.6;100.0;101420;;;;
2023/03/16 03:11:00;;;;;;;2.0;2.0;;;;;;;4.6;100.0;101420;;;;
2023/03/16 03:12:00;;;;;;;2.0;2.0;;;;;;;4.6;100.0;101420;;;;
2023/03/16 03:13:00;;;;;;;2.0;2.0;;;;;;;4.6;100.0;101420;;;;
2023/03/16 03:14:00;;;;;;;2.0;2.0;;;;;;;4.6;100.0;101420;;;;
2023/03/16 03:15:00;;;;;;;2.0;2.0;;;;;;;4.7;100.0;101420;;;;
2023/03/16 03:16:00;;;;;;;2.0;2.0;;;;;;;4.7;100.0;101420;;;;
2023/03/16 03:17:00;;;;;;;2.0;2.0;;;;;;;4.6;100.0;101430;;;;
2023/03/16 03:18:00;;;;;;;2.0;2.0;;;;;;;4.6;100.0;101430;;;;
2023/03/16 03:19:01;;;;;;;2.0;2.0;;;;;;;4.6;100.0;101430;;;;
2023/03/16 03:20:06;;;;;;;2.0;2.0;;;;;;;4.6;100.0;101430;;;;
2023/03/16 03:21:00;;;;;;;2.0;2.0;;;;;;;4.6;100.0;101420;;;;
2023/03/16 03:22:03;;;;;;;2.0;2.0;;;;;;;4.6;100.0;101420;;;;
2023/03/16 03:23:01;;;;;;;2.0;2.0;;;;;;;4.5;100.0;101420;;;;
2023/03/16 03:24:00;;;;;;;2.0;2.0;;;;;;;4.5;100.0;101420;;;;
2023/03/16 03:25:01;;;;;;;2.0;2.0;;;;;;;4.6;100.0;101410;;;;
2023/03/16 03:26:01;;;;;;;2.0;2.0;;;;;;;4.6;100.0;101410;;;;
2023/03/16 03:27:04;;;;;;;2.0;2.0;;;;;;;4.7;100.0;101410;;;;
2023/03/16 03:28:01;;;;;;;2.0;2.0;;;;;;;4.7;100.0;101410;;;;
2023/03/16 03:29:01;;;;;;;2.0;2.0;;;;;;;4.6;100.0;101410;;;;
2023/03/16 03:30:00;;;;;;;2.0;2.0;;;;;;;4.6;100.0;101410;;;;
2023/03/16 03:31:00;;;;;;;2.0;2.0;;;;;;;4.6;100.0;101400;;;;
2023/03/16 03:32:00;;;;;;;2.0;2.0;;;;;;;4.6;100.0;101400;;;;
2023/03/16 03:33:00;;;;;;;2.0;2.0;;;;;;;4.6;100.0;101400;;;;
2023/03/16 03:34:05;;;;;;;2.0;2.0;;;;;;;4.6;100.0;101400;;;;
2023/03/16 03:35:00;;;;;;;2.0;2.0;;;;;;;4.5;100.0;101400;;;;
2023/03/16 03:36:00;;;;;;;2.0;2.0;;;;;;;4.5;100.0;101400;;;;
2023/03/16 03:37:00;;;;;;;2.0;2.0;;;;;;;4.6;100.0;101390;;;;
2023/03/16 03:38:00;;;;;;;2.0;2.0;;;;;;;4.6;100.0;101390;;;;
2023/03/16 03:39:03;;;;;;;2.0;2.0;;;;;;;4.6;100.0;101400;;;;
2023/03/16 03:40:03;;;;;;;2.0;2.0;;;;;;;4.6;100.0;101400;;;;
2023/03/16 03:41:00;;;;;;;2.1;2.1;;;;;;;4.6;100.0;101390;;;;
2023/03/16 03:42:01;;;;;;;2.1;2.1;;;;;;;4.6;100.0;101390;;;;
2023/03/16 03:43:00;;;;;;;2.1;2.1;;;;;;;4.7;100.0;101390;;;;
2023/03/16 03:44:00;;;;;;;2.1;2.1;;;;;;;4.7;100.0;101390;;;;
2023/03/16 03:45:00;;;;;;;2.1;2.1;;;;;;;4.5;100.0;101390;;;;
2023/03/16 03:46:01;;;;;;;2.1;2.1;;;;;;;4.5;100.0;101390;;;;
2023/03/16 03:47:00;;;;;;;2.1;2.1;;;;;;;4.6;100.0;101390;;;;
2023/03/16 03:48:00;;;;;;;2.1;2.1;;;;;;;4.6;100.0;101390;;;;
2023/03/16 03:49:03;;;;;;;2.1;2.1;;;;;;;4.7;100.0;101380;;;;
2023/03/16 03:50:00;;;;;;;2.1;2.1;;;;;;;4.7;100.0;101380;;;;
2023/03/16 03:51:00;;;;;;;2.1;2.1;;;;;;;4.7;100.0;101380;;;;
2023/03/16 03:52:03;;;;;;;2.1;2.1;;;;;;;4.7;100.0;101380;;;;
2023/03/16 03:53:00;;;;;;;2.1;2.1;;;;;;;4.6;100.0;101380;;;;
2023/03/16 03:54:00;;;;;;;2.1;2.1;;;;;;;4.6;100.0;101380;;;;
2023/03/16 03:55:00;;;;;;;2.1;2.1;;;;;;;4.6;100.0;101390;;;;
2023/03/16 03:56:00;;;;;;;2.1;2.1;;;;;;;4.6;100.0;101390;;;;
2023/03/16 03:57:00;;;;;;;2.1;2.1;;;;;;;4.5;100.0;101380;;;;
2023/03/16 03:58:00;;;;;;;2.1;2.1;;;;;;;4.5;100.0;101380;;;;
2023/03/16 03:59:00;;;;;;;2.1;2.1;;;;;;;4.5;100.0;101380;;;;
2023/03/16 04:00:00;;;;;;;2.1;2.1;;;;;;;4.5;100.0;101380;;;;
2023/03/16 04:01:00;;;;;;;1.8;1.8;;;;;;;4.6;100.0;101380;;;;
2023/03/16 04:02:00;;;;;;;1.8;1.8;;;;;;;4.6;100.0;101380;;;;
2023/03/16 04:03:01;;;;;;;1.8;1.8;;;;;;;4.5;100.0;101380;;;;
2023/03/16 04:04:00;;;;;;;1.8;1.8;;;;;;;4.5;100.0;101380;;;;
2023/03/16 04:05:00;;;;;;;1.8;1.8;;;;;;;4.6;100.0;101380;;;;
2023/03/16 04:06:00;;;;;;;1.8;1.8;;;;;;;4.6;100.0;101380;;;;
2023/03/16 04:07:00;;;;;;;1.8;1.8;;;;;;;4.7;100.0;101380;;;;
2023/03/16 04:08:00;;;;;;;1.8;1.8;;;;;;;4.7;100.0;101380;;;;
2023/03/16 04:09:00;;;;;;;1.8;1.8;;;;;;;4.7;100.0;101380;;;;
2023/03/16 04:10:00;;;;;;;1.8;1.8;;;;;;;4.7;100.0;101380;;;;
2023/03/16 04:11:00;;;;;;;1.8;1.8;;;;;;;4.6;100.0;101370;;;;
2023/03/16 04:12:01;;;;;;;1.8;1.8;;;;;;;4.6;100.0;101370;;;;
2023/03/16 04:13:00;;;;;;;1.8;1.8;;;;;;;4.5;100.0;101370;;;;
2023/03/16 04:14:00;;;;;;;1.8;1.8;;;;;;;4.5;100.0;101370;;;;
2023/03/16 04:15:00;;;;;;;1.8;1.8;;;;;;;4.6;100.0;101370;;;;
2023/03/16 04:16:01;;;;;;;1.8;1.8;;;;;;;4.6;100.0;101370;;;;
2023/03/16 04:17:00;;;;;;;1.8;1.8;;;;;;;4.6;100.0;101370;;;;
2023/03/16 04:18:00;;;;;;;1.8;1.8;;;;;;;4.6;100.0;101370;;;;
2023/03/16 04:19:00;;;;;;;1.8;1.8;;;;;;;4.6;100.0;101380;;;;
2023/03/16 04:20:01;;;;;;;1.8;1.8;;;;;;;4.6;100.0;101380;;;;
2023/03/16 04:21:00;;;;;;;1.9;1.9;;;;;;;4.6;100.0;101370;;;;
2023/03/16 04:22:00;;;;;;;1.9;1.9;;;;;;;4.6;100.0;101370;;;;
2023/03/16 04:23:00;;;;;;;1.9;1.9;;;;;;;4.7;100.0;101370;;;;
2023/03/16 04:24:03;;;;;;;1.9;1.9;;;;;;;4.7;100.0;101370;;;;
2023/03/16 04:25:02;;;;;;;1.9;1.9;;;;;;;4.6;100.0;101380;;;;
2023/03/16 04:26:00;;;;;;;1.9;1.9;;;;;;;4.6;100.0;101380;;;;
2023/03/16 04:27:01;;;;;;;1.9;1.9;;;;;;;4.6;100.0;101380;;;;
2023/03/16 04:28:00;;;;;;;1.9;1.9;;;;;;;4.6;100.0;101380;;;;
2023/03/16 04:29:02;;;;;;;1.9;1.9;;;;;;;4.6;100.0;101380;;;;
2023/03/16 04:30:00;;;;;;;1.9;1.9;;;;;;;4.6;100.0;101380;;;;
2023/03/16 04:31:01;;;;;;;1.9;1.9;;;;;;;4.7;100.0;101370;;;;
2023/03/16 04:32:00;;;;;;;1.9;1.9;;;;;;;4.7;100.0;101370;;;;
2023/03/16 04:33:00;;;;;;;1.9;1.9;;;;;;;4.5;100.0;101370;;;;
2023/03/16 04:34:01;;;;;;;1.9;1.9;;;;;;;4.5;100.0;101370;;;;
2023/03/16 04:35:00;;;;;;;1.9;1.9;;;;;;;4.6;100.0;101370;;;;
2023/03/16 04:36:01;;;;;;;1.9;1.9;;;;;;;4.6;100.0;101370;;;;
2023/03/16 04:37:01;;;;;;;1.9;1.9;;;;;;;4.6;100.0;101360;;;;
2023/03/16 04:38:01;;;;;;;1.9;1.9;;;;;;;4.6;100.0;101360;;;;
2023/03/16 04:39:01;;;;;;;1.9;1.9;;;;;;;4.6;100.0;101370;;;;
2023/03/16 04:40:08;;;;;;;1.9;1.9;;;;;;;4.6;100.0;101370;;;;
2023/03/16 04:41:01;;;;;;;1.9;1.9;;;;;;;4.6;100.0;101360;;;;
2023/03/16 04:42:00;;;;;;;1.9;1.9;;;;;;;4.6;100.0;101360;;;;
2023/03/16 04:43:00;;;;;;;1.9;1.9;;;;;;;4.6;100.0;101360;;;;
2023/03/16 04:44:00;;;;;;;1.9;1.9;;;;;;;4.6;100.0;101360;;;;
2023/03/16 04:45:00;;;;;;;1.9;1.9;;;;;;;4.6;100.0;101360;;;;
2023/03/16 04:46:00;;;;;;;1.9;1.9;;;;;;;4.6;100.0;101360;;;;
2023/03/16 04:47:00;;;;;;;1.9;1.9;;;;;;;4.5;100.0;101360;;;;
2023/03/16 04:48:00;;;;;;;1.9;1.9;;;;;;;4.5;100.0;101360;;;;
2023/03/16 04:49:00;;;;;;;1.9;1.9;;;;;;;4.5;100.0;101360;;;;
2023/03/16 04:50:01;;;;;;;1.9;1.9;;;;;;;4.5;100.0;101360;;;;
2023/03/16 04:51:02;;;;;;;1.9;1.9;;;;;;;4.6;100.0;101370;;;;
2023/03/16 04:52:00;;;;;;;1.9;1.9;;;;;;;4.6;100.0;101370;;;;
2023/03/16 04:53:00;;;;;;;1.9;1.9;;;;;;;4.7;100.0;101360;;;;
2023/03/16 04:54:00;;;;;;;1.9;1.9;;;;;;;4.7;100.0;101360;;;;
2023/03/16 04:55:00;;;;;;;1.9;1.9;;;;;;;4.6;100.0;101360;;;;
2023/03/16 04:56:00;;;;;;;1.9;1.9;;;;;;;4.6;100.0;101360;;;;
2023/03/16 04:57:02;;;;;;;1.9;1.9;;;;;;;4.6;100.0;101350;;;;
2023/03/16 04:58:00;;;;;;;1.9;1.9;;;;;;;4.6;100.0;101350;;;;
2023/03/16 04:59:00;;;;;;;1.9;1.9;;;;;;;4.7;100.0;101350;;;;
2023/03/16 05:00:00;;;;;;;1.9;1.9;;;;;;;4.7;100.0;101350;;;;
2023/03/16 05:01:01;;;;;;;1.8;1.8;;;;;;;4.8;100.0;101350;;;;
2023/03/16 05:02:00;;;;;;;1.8;1.8;;;;;;;4.8;100.0;101350;;;;
2023/03/16 05:03:03;;;;;;;1.8;1.8;;;;;;;4.7;100.0;101350;;;;
2023/03/16 05:04:01;;;;;;;1.8;1.8;;;;;;;4.7;100.0;101350;;;;
2023/03/16 05:05:00;;;;;;;1.8;1.8;;;;;;;4.8;100.0;101350;;;;
2023/03/16 05:06:00;;;;;;;1.8;1.8;;;;;;;4.8;100.0;101350;;;;
2023/03/16 05:07:00;;;;;;;1.8;1.8;;;;;;;4.7;100.0;101350;;;;
2023/03/16 05:08:00;;;;;;;1.8;1.8;;;;;;;4.7;100.0;101350;;;;
2023/03/16 05:09:00;;;;;;;1.8;1.8;;;;;;;4.7;100.0;101350;;;;
2023/03/16 05:10:00;;;;;;;1.8;1.8;;;;;;;4.7;100.0;101350;;;;
2023/03/16 05:11:00;;;;;;;1.8;1.8;;;;;;;4.8;100.0;101340;;;;
2023/03/16 05:12:00;;;;;;;1.8;1.8;;;;;;;4.8;100.0;101340;;;;
2023/03/16 05:13:00;;;;;;;1.8;1.8;;;;;;;4.7;100.0;101340;;;;
2023/03/16 05:14:01;;;;;;;1.8;1.8;;;;;;;4.7;100.0;101340;;;;
2023/03/16 05:15:00;;;;;;;1.8;1.8;;;;;;;4.7;100.0;101340;;;;
2023/03/16 05:16:00;;;;;;;1.8;1.8;;;;;;;4.7;100.0;101340;;;;
2023/03/16 05:17:02;;;;;;;1.8;1.8;;;;;;;4.7;100.0;101340;;;;
2023/03/16 05:18:00;;;;;;;1.8;1.8;;;;;;;4.7;100.0;101340;;;;
2023/03/16 05:19:00;;;;;;;1.8;1.8;;;;;;;4.6;100.0;101340;;;;
2023/03/16 05:20:00;;;;;;;1.8;1.8;;;;;;;4.6;100.0;101340;;;;
2023/03/16 05:21:00;;;;;;;2.0;2.0;;;;;;;4.7;100.0;101330;;;;
2023/03/16 05:22:00;;;;;;;2.0;2.0;;;;;;;4.7;100.0;101330;;;;
2023/03/16 05:23:00;;;;;;;2.0;2.0;;;;;;;4.7;100.0;101330;;;;
2023/03/16 05:24:00;;;;;;;2.0;2.0;;;;;;;4.7;100.0;101330;;;;
2023/03/16 05:25:03;;;;;;;2.0;2.0;;;;;;;4.6;100.0;101330;;;;
2023/03/16 05:26:00;;;;;;;2.0;2.0;;;;;;;4.6;100.0;101330;;;;
2023/03/16 05:27:02;;;;;;;2.0;2.0;;;;;;;4.8;100.0;101330;;;;
2023/03/16 05:28:00;;;;;;;2.0;2.0;;;;;;;4.8;100.0;101330;;;;
2023/03/16 05:29:00;;;;;;;2.0;2.0;;;;;;;4.7;100.0;101330;;;;
2023/03/16 05:30:00;;;;;;;2.0;2.0;;;;;;;4.7;100.0;101330;;;;
2023/03/16 05:31:02;;;;;;;2.0;2.0;;;;;;;4.7;100.0;101330;;;;
2023/03/16 05:32:00;;;;;;;2.0;2.0;;;;;;;4.7;100.0;101330;;;;
2023/03/16 05:33:00;;;;;;;2.0;2.0;;;;;;;4.7;100.0;101330;;;;
2023/03/16 05:34:01;;;;;;;2.0;2.0;;;;;;;4.7;100.0;101330;;;;
2023/03/16 05:35:02;;;;;;;2.0;2.0;;;;;;;4.8;100.0;101330;;;;
2023/03/16 05:36:01;;;;;;;2.0;2.0;;;;;;;4.8;100.0;101330;;;;
2023/03/16 05:37:00;;;;;;;2.0;2.0;;;;;;;4.7;100.0;101330;;;;
2023/03/16 05:38:00;;;;;;;2.0;2.0;;;;;;;4.7;100.0;101330;;;;
2023/03/16 05:39:00;;;;;;;2.0;2.0;;;;;;;4.6;100.0;101330;;;;
2023/03/16 05:40:00;;;;;;;2.0;2.0;;;;;;;4.6;100.0;101330;;;;
2023/03/16 05:41:03;;;;;;;2.0;2.0;;;;;;;4.7;100.0;101330;;;;
2023/03/16 05:42:00;;;;;;;2.0;2.0;;;;;;;4.7;100.0;101330;;;;
2023/03/16 05:43:00;;;;;;;2.0;2.0;;;;;;;4.7;100.0;101330;;;;
2023/03/16 05:44:00;;;;;;;2.0;2.0;;;;;;;4.7;100.0;101330;;;;
2023/03/16 05:45:00;;;;;;;2.0;2.0;;;;;;;4.7;100.0;101330;;;;
2023/03/16 05:46:00;;;;;;;2.0;2.0;;;;;;;4.7;100.0;101330;;;;
2023/03/16 05:47:00;;;;;;;2.0;2.0;;;;;;;4.7;100.0;101330;;;;
2023/03/16 05:48:00;;;;;;;2.0;2.0;;;;;;;4.7;100.0;101330;;;;
2023/03/16 05:49:00;;;;;;;2.0;2.0;;;;;;;4.8;100.0;101330;;;;
2023/03/16 05:50:00;;;;;;;2.0;2.0;;;;;;;4.8;100.0;101330;;;;
2023/03/16 05:51:01;;;;;;;2.0;2.0;;;;;;;4.7;100.0;101330;;;;
2023/03/16 05:52:00;;;;;;;2.0;2.0;;;;;;;4.7;100.0;101330;;;;
2023/03/16 05:53:00;;;;;;;2.0;2.0;;;;;;;4.8;100.0;101330;;;;
2023/03/16 05:54:00;;;;;;;2.0;2.0;;;;;;;4.8;100.0;101330;;;;
2023/03/16 05:55:00;;;;;;;2.0;2.0;;;;;;;4.8;100.0;101330;;;;
2023/03/16 05:56:00;;;;;;;2.0;2.0;;;;;;;4.8;100.0;101330;;;;
2023/03/16 05:57:00;;;;;;;2.0;2.0;;;;;;;4.8;100.0;101330;;;;
2023/03/16 05:58:00;;;;;;;2.0;2.0;;;;;;;4.8;100.0;101330;;;;
2023/03/16 05:59:01;;;;;;;2.0;2.0;;;;;;;4.8;100.0;101330;;;;
2023/03/16 06:00:01;;;;;;;1.8;1.8;;;;;;;4.8;100.0;101330;;;;
2023/03/16 06:01:00;;;;;;;1.8;1.8;;;;;;;4.8;100.0;101330;;;;
2023/03/16 06:02:01;;;;;;;1.8;1.8;;;;;;;4.8;100.0;101330;;;;
2023/03/16 06:03:00;;;;;;;1.8;1.8;;;;;;;4.7;100.0;101330;;;;
2023/03/16 06:04:02;;;;;;;1.8;1.8;;;;;;;4.7;100.0;101330;;;;
2023/03/16 06:05:00;;;;;;;1.8;1.8;;;;;;;4.8;100.0;101330;;;;
2023/03/16 06:06:00;;;;;;;1.8;1.8;;;;;;;4.8;100.0;101330;;;;
2023/03/16 06:07:00;;;;;;;1.8;1.8;;;;;;;4.8;100.0;101320;;;;
2023/03/16 06:08:01;;;;;;;1.8;1.8;;;;;;;4.8;100.0;101320;;;;
2023/03/16 06:09:00;;;;;;;1.8;1.8;;;;;;;4.8;100.0;101320;;;;
2023/03/16 06:10:00;;;;;;;1.8;1.8;;;;;;;4.8;100.0;101320;;;;
2023/03/16 06:11:00;;;;;;;1.8;1.8;;;;;;;4.8;100.0;101320;;;;
2023/03/16 06:12:00;;;;;;;1.8;1.8;;;;;;;4.8;100.0;101320;;;;
2023/03/16 06:13:00;;;;;;;1.8;1.8;;;;;;;4.8;100.0;101320;;;;
2023/03/16 06:14:00;;;;;;;1.8;1.8;;;;;;;4.8;100.0;101320;;;;
2023/03/16 06:15:01;;;;;;;1.8;1.8;;;;;;;4.8;100.0;101320;;;;
2023/03/16 06:16:00;;;;;;;1.8;1.8;;;;;;;4.8;100.0;101320;;;;
2023/03/16 06:17:00;;;;;;;1.8;1.8;;;;;;;5.0;100.0;101320;;;;
2023/03/16 06:18:00;;;;;;;1.8;1.8;;;;;;;5.0;100.0;101320;;;;
2023/03/16 06:19:00;;;;;;;1.8;1.8;;;;;;;4.9;100.0;101320;;;;
2023/03/16 06:20:00;;;;;;;2.0;2.0;;;;;;;4.9;100.0;101320;;;;
2023/03/16 06:21:00;;;;;;;2.0;2.0;;;;;;;4.9;100.0;101320;;;;
2023/03/16 06:22:00;;;;;;;2.0;2.0;;;;;;;4.9;100.0;101320;;;;
2023/03/16 06:23:00;;;;;;;2.0;2.0;;;;;;;4.9;100.0;101310;;;;
2023/03/16 06:24:01;;;;;;;2.0;2.0;;;;;;;4.9;100.0;101310;;;;
2023/03/16 06:25:00;;;;;;;2.0;2.0;;;;;;;4.9;100.0;101310;;;;
2023/03/16 06:26:00;;;;;;;2.0;2.0;;;;;;;4.9;100.0;101310;;;;
2023/03/16 06:27:00;;;;;;;2.0;2.0;;;;;;;4.9;100.0;101320;;;;
2023/03/16 06:28:00;;;;;;;2.0;2.0;;;;;;;4.9;100.0;101320;;;;
2023/03/16 06:29:00;;;;;;;2.0;2.0;;;;;;;4.9;100.0;101320;;;;